sensor_id;sensor_type;location;lat;lon;timestamp;P1;durP1;ratioP1;P2;durP2;ratioP2
21661;SDS011;10992;48.170;8.596;2023-02-04T00:00:13;1.48;;;1.00;;
21661;SDS011;10992;48.170;8.596;2023-02-04T00:02:42;1.75;;;1.25;;
21661;SDS011;10992;48.170;8.596;2023-02-04T00:05:09;1.75;;;1.30;;
21661;SDS011;10992;48.170;8.596;2023-02-04T00:07:37;1.48;;;1.20;;
21661;SDS011;10992;48.170;8.596;2023-02-04T00:10:06;0.90;;;0.77;;
21661;SDS011;10992;48.170;8.596;2023-02-04T00:12:35;1.88;;;0.60;;
21661;SDS011;10992;48.170;8.596;2023-02-04T00:15:02;1.35;;;1.00;;
21661;SDS011;10992;48.170;8.596;2023-02-04T00:17:30;0.60;;;0.60;;
21661;SDS011;10992;48.170;8.596;2023-02-04T00:19:56;1.20;;;0.70;;
21661;SDS011;10992;48.170;8.596;2023-02-04T00:22:24;1.73;;;1.00;;
21661;SDS011;10992;48.170;8.596;2023-02-04T00:24:53;0.60;;;0.60;;
21661;SDS011;10992;48.170;8.596;2023-02-04T00:27:20;0.70;;;0.60;;
21661;SDS011;10992;48.170;8.596;2023-02-04T00:29:47;2.45;;;0.80;;
21661;SDS011;10992;48.170;8.596;2023-02-04T00:32:14;0.98;;;0.80;;
21661;SDS011;10992;48.170;8.596;2023-02-04T00:34:41;1.00;;;0.90;;
21661;SDS011;10992;48.170;8.596;2023-02-04T00:37:08;1.63;;;1.13;;
21661;SDS011;10992;48.170;8.596;2023-02-04T00:39:36;1.48;;;1.25;;
21661;SDS011;10992;48.170;8.596;2023-02-04T00:42:04;1.92;;;1.23;;
21661;SDS011;10992;48.170;8.596;2023-02-04T00:44:31;2.42;;;1.42;;
21661;SDS011;10992;48.170;8.596;2023-02-04T00:46:58;2.70;;;1.50;;
21661;SDS011;10992;48.170;8.596;2023-02-04T00:49:25;4.05;;;1.92;;
21661;SDS011;10992;48.170;8.596;2023-02-04T00:51:52;4.38;;;2.03;;
21661;SDS011;10992;48.170;8.596;2023-02-04T00:54:19;3.17;;;1.98;;
21661;SDS011;10992;48.170;8.596;2023-02-04T00:56:46;2.45;;;1.60;;
21661;SDS011;10992;48.170;8.596;2023-02-04T00:59:14;3.55;;;2.10;;
21661;SDS011;10992;48.170;8.596;2023-02-04T01:01:41;3.08;;;1.95;;
21661;SDS011;10992;48.170;8.596;2023-02-04T01:04:08;2.63;;;1.90;;
21661;SDS011;10992;48.170;8.596;2023-02-04T01:06:35;2.63;;;2.00;;
21661;SDS011;10992;48.170;8.596;2023-02-04T01:09:03;3.72;;;2.17;;
21661;SDS011;10992;48.170;8.596;2023-02-04T01:11:30;3.13;;;2.53;;
21661;SDS011;10992;48.170;8.596;2023-02-04T01:13:58;5.78;;;2.63;;
21661;SDS011;10992;48.170;8.596;2023-02-04T01:16:25;2.97;;;2.42;;
21661;SDS011;10992;48.170;8.596;2023-02-04T01:18:53;4.15;;;2.78;;
21661;SDS011;10992;48.170;8.596;2023-02-04T01:21:22;3.70;;;2.90;;
21661;SDS011;10992;48.170;8.596;2023-02-04T01:23:50;3.92;;;3.15;;
21661;SDS011;10992;48.170;8.596;2023-02-04T01:26:18;3.63;;;2.97;;
21661;SDS011;10992;48.170;8.596;2023-02-04T01:28:45;4.95;;;3.47;;
21661;SDS011;10992;48.170;8.596;2023-02-04T01:31:12;5.13;;;3.50;;
21661;SDS011;10992;48.170;8.596;2023-02-04T01:33:39;5.57;;;3.35;;
21661;SDS011;10992;48.170;8.596;2023-02-04T01:36:06;6.75;;;4.45;;
21661;SDS011;10992;48.170;8.596;2023-02-04T01:38:36;5.97;;;3.63;;
21661;SDS011;10992;48.170;8.596;2023-02-04T01:41:03;7.35;;;4.07;;
21661;SDS011;10992;48.170;8.596;2023-02-04T01:43:31;5.32;;;3.90;;
21661;SDS011;10992;48.170;8.596;2023-02-04T01:45:58;6.07;;;3.63;;
21661;SDS011;10992;48.170;8.596;2023-02-04T01:48:27;5.57;;;3.78;;
21661;SDS011;10992;48.170;8.596;2023-02-04T01:50:57;6.82;;;4.10;;
21661;SDS011;10992;48.170;8.596;2023-02-04T01:53:36;5.40;;;3.63;;
21661;SDS011;10992;48.170;8.596;2023-02-04T01:56:15;4.72;;;3.65;;
21661;SDS011;10992;48.170;8.596;2023-02-04T01:58:45;6.65;;;4.28;;
21661;SDS011;10992;48.170;8.596;2023-02-04T02:01:35;5.28;;;4.07;;
21661;SDS011;10992;48.170;8.596;2023-02-04T02:04:10;5.93;;;3.80;;
21661;SDS011;10992;48.170;8.596;2023-02-04T02:06:43;5.40;;;3.78;;
21661;SDS011;10992;48.170;8.596;2023-02-04T02:09:13;6.32;;;3.70;;
21661;SDS011;10992;48.170;8.596;2023-02-04T02:11:41;4.70;;;3.42;;
21661;SDS011;10992;48.170;8.596;2023-02-04T02:14:09;5.22;;;3.38;;
21661;SDS011;10992;48.170;8.596;2023-02-04T02:16:37;5.10;;;2.70;;
21661;SDS011;10992;48.170;8.596;2023-02-04T02:19:04;4.65;;;2.67;;
21661;SDS011;10992;48.170;8.596;2023-02-04T02:21:34;4.85;;;2.63;;
21661;SDS011;10992;48.170;8.596;2023-02-04T02:26:52;3.40;;;2.85;;
21661;SDS011;10992;48.170;8.596;2023-02-04T02:29:22;3.17;;;1.98;;
21661;SDS011;10992;48.170;8.596;2023-02-04T02:31:50;2.40;;;1.98;;
21661;SDS011;10992;48.170;8.596;2023-02-04T02:34:17;1.50;;;1.40;;
21661;SDS011;10992;48.170;8.596;2023-02-04T02:36:44;2.47;;;1.63;;
21661;SDS011;10992;48.170;8.596;2023-02-04T02:39:11;2.40;;;1.30;;
21661;SDS011;10992;48.170;8.596;2023-02-04T02:41:38;1.55;;;1.27;;
21661;SDS011;10992;48.170;8.596;2023-02-04T02:44:06;1.58;;;1.20;;
21661;SDS011;10992;48.170;8.596;2023-02-04T02:46:34;2.17;;;1.10;;
21661;SDS011;10992;48.170;8.596;2023-02-04T02:49:01;1.67;;;1.33;;
21661;SDS011;10992;48.170;8.596;2023-02-04T02:51:28;2.95;;;1.00;;
21661;SDS011;10992;48.170;8.596;2023-02-04T02:53:57;1.70;;;1.20;;
21661;SDS011;10992;48.170;8.596;2023-02-04T02:56:24;1.90;;;1.20;;
21661;SDS011;10992;48.170;8.596;2023-02-04T02:58:52;2.65;;;1.33;;
21661;SDS011;10992;48.170;8.596;2023-02-04T03:01:19;1.70;;;1.27;;
21661;SDS011;10992;48.170;8.596;2023-02-04T03:03:48;2.17;;;1.10;;
21661;SDS011;10992;48.170;8.596;2023-02-04T03:06:21;1.48;;;1.17;;
21661;SDS011;10992;48.170;8.596;2023-02-04T03:08:52;1.48;;;1.00;;
21661;SDS011;10992;48.170;8.596;2023-02-04T03:11:23;1.55;;;1.00;;
21661;SDS011;10992;48.170;8.596;2023-02-04T03:13:51;1.15;;;1.02;;
21661;SDS011;10992;48.170;8.596;2023-02-04T03:16:19;1.77;;;1.30;;
21661;SDS011;10992;48.170;8.596;2023-02-04T03:18:46;2.60;;;1.52;;
21661;SDS011;10992;48.170;8.596;2023-02-04T03:21:14;2.17;;;1.60;;
21661;SDS011;10992;48.170;8.596;2023-02-04T03:23:41;2.70;;;1.92;;
21661;SDS011;10992;48.170;8.596;2023-02-04T03:26:08;3.95;;;1.77;;
21661;SDS011;10992;48.170;8.596;2023-02-04T03:28:39;2.25;;;1.77;;
21661;SDS011;10992;48.170;8.596;2023-02-04T03:31:08;2.20;;;1.90;;
21661;SDS011;10992;48.170;8.596;2023-02-04T03:33:35;2.20;;;2.00;;
21661;SDS011;10992;48.170;8.596;2023-02-04T03:36:02;2.42;;;2.03;;
21661;SDS011;10992;48.170;8.596;2023-02-04T03:38:29;2.38;;;1.73;;
21661;SDS011;10992;48.170;8.596;2023-02-04T03:40:56;2.53;;;2.10;;
21661;SDS011;10992;48.170;8.596;2023-02-04T03:43:23;2.13;;;1.88;;
21661;SDS011;10992;48.170;8.596;2023-02-04T03:45:49;2.33;;;1.92;;
21661;SDS011;10992;48.170;8.596;2023-02-04T03:48:16;2.40;;;2.20;;
21661;SDS011;10992;48.170;8.596;2023-02-04T03:50:43;2.58;;;1.83;;
21661;SDS011;10992;48.170;8.596;2023-02-04T03:53:11;2.40;;;2.13;;
21661;SDS011;10992;48.170;8.596;2023-02-04T03:55:37;5.03;;;2.28;;
21661;SDS011;10992;48.170;8.596;2023-02-04T03:58:04;2.95;;;2.30;;
21661;SDS011;10992;48.170;8.596;2023-02-04T04:00:31;1.90;;;1.70;;
21661;SDS011;10992;48.170;8.596;2023-02-04T04:02:59;1.88;;;1.67;;
21661;SDS011;10992;48.170;8.596;2023-02-04T04:05:26;2.55;;;1.70;;
21661;SDS011;10992;48.170;8.596;2023-02-04T04:07:53;2.80;;;1.77;;
21661;SDS011;10992;48.170;8.596;2023-02-04T04:10:21;1.58;;;1.25;;
21661;SDS011;10992;48.170;8.596;2023-02-04T04:12:48;1.38;;;1.20;;
21661;SDS011;10992;48.170;8.596;2023-02-04T04:15:15;2.13;;;1.50;;
21661;SDS011;10992;48.170;8.596;2023-02-04T04:17:42;2.15;;;1.50;;
21661;SDS011;10992;48.170;8.596;2023-02-04T04:20:09;1.80;;;1.50;;
21661;SDS011;10992;48.170;8.596;2023-02-04T04:22:36;2.28;;;1.40;;
21661;SDS011;10992;48.170;8.596;2023-02-04T04:25:03;1.10;;;1.00;;
21661;SDS011;10992;48.170;8.596;2023-02-04T04:27:31;1.40;;;1.17;;
21661;SDS011;10992;48.170;8.596;2023-02-04T04:29:58;2.65;;;1.00;;
21661;SDS011;10992;48.170;8.596;2023-02-04T04:32:24;1.08;;;0.98;;
21661;SDS011;10992;48.170;8.596;2023-02-04T04:34:51;1.30;;;1.13;;
21661;SDS011;10992;48.170;8.596;2023-02-04T04:37:18;1.25;;;0.98;;
21661;SDS011;10992;48.170;8.596;2023-02-04T04:39:45;1.08;;;0.82;;
21661;SDS011;10992;48.170;8.596;2023-02-04T04:42:12;2.20;;;1.17;;
21661;SDS011;10992;48.170;8.596;2023-02-04T04:44:39;2.03;;;0.85;;
21661;SDS011;10992;48.170;8.596;2023-02-04T04:47:06;0.85;;;0.80;;
21661;SDS011;10992;48.170;8.596;2023-02-04T04:49:33;1.00;;;0.90;;
21661;SDS011;10992;48.170;8.596;2023-02-04T04:51:59;1.13;;;0.90;;
21661;SDS011;10992;48.170;8.596;2023-02-04T04:54:26;1.42;;;0.88;;
21661;SDS011;10992;48.170;8.596;2023-02-04T04:56:53;1.38;;;1.27;;
21661;SDS011;10992;48.170;8.596;2023-02-04T04:59:20;1.00;;;0.90;;
21661;SDS011;10992;48.170;8.596;2023-02-04T05:01:47;0.80;;;0.80;;
21661;SDS011;10992;48.170;8.596;2023-02-04T05:04:14;1.08;;;0.98;;
21661;SDS011;10992;48.170;8.596;2023-02-04T05:06:41;1.23;;;1.08;;
21661;SDS011;10992;48.170;8.596;2023-02-04T05:09:08;0.90;;;0.70;;
21661;SDS011;10992;48.170;8.596;2023-02-04T05:11:35;1.20;;;0.88;;
21661;SDS011;10992;48.170;8.596;2023-02-04T05:14:01;1.17;;;1.05;;
21661;SDS011;10992;48.170;8.596;2023-02-04T05:16:28;0.95;;;0.90;;
21661;SDS011;10992;48.170;8.596;2023-02-04T05:18:55;1.65;;;1.05;;
21661;SDS011;10992;48.170;8.596;2023-02-04T05:21:22;0.82;;;0.82;;
21661;SDS011;10992;48.170;8.596;2023-02-04T05:23:49;1.00;;;0.90;;
21661;SDS011;10992;48.170;8.596;2023-02-04T05:26:16;1.17;;;1.08;;
21661;SDS011;10992;48.170;8.596;2023-02-04T05:28:55;1.33;;;1.20;;
21661;SDS011;10992;48.170;8.596;2023-02-04T05:31:22;1.27;;;0.90;;
21661;SDS011;10992;48.170;8.596;2023-02-04T05:33:49;0.73;;;0.70;;
21661;SDS011;10992;48.170;8.596;2023-02-04T05:36:16;1.35;;;1.08;;
21661;SDS011;10992;48.170;8.596;2023-02-04T05:38:45;1.40;;;1.30;;
21661;SDS011;10992;48.170;8.596;2023-02-04T05:41:12;1.27;;;1.08;;
21661;SDS011;10992;48.170;8.596;2023-02-04T05:43:39;2.05;;;1.95;;
21661;SDS011;10992;48.170;8.596;2023-02-04T05:46:06;1.80;;;1.50;;
21661;SDS011;10992;48.170;8.596;2023-02-04T05:48:33;2.03;;;1.60;;
21661;SDS011;10992;48.170;8.596;2023-02-04T05:51:00;1.02;;;0.93;;
21661;SDS011;10992;48.170;8.596;2023-02-04T05:53:27;0.80;;;0.80;;
21661;SDS011;10992;48.170;8.596;2023-02-04T05:55:53;1.00;;;0.90;;
21661;SDS011;10992;48.170;8.596;2023-02-04T05:58:20;1.10;;;1.00;;
21661;SDS011;10992;48.170;8.596;2023-02-04T06:00:48;1.10;;;1.00;;
21661;SDS011;10992;48.170;8.596;2023-02-04T06:03:14;1.33;;;1.23;;
21661;SDS011;10992;48.170;8.596;2023-02-04T06:05:44;3.20;;;1.30;;
21661;SDS011;10992;48.170;8.596;2023-02-04T06:08:11;2.35;;;1.27;;
21661;SDS011;10992;48.170;8.596;2023-02-04T06:10:41;4.22;;;1.25;;
21661;SDS011;10992;48.170;8.596;2023-02-04T06:13:08;2.35;;;1.30;;
21661;SDS011;10992;48.170;8.596;2023-02-04T06:15:35;1.30;;;1.15;;
21661;SDS011;10992;48.170;8.596;2023-02-04T06:18:02;2.42;;;1.20;;
21661;SDS011;10992;48.170;8.596;2023-02-04T06:20:31;1.50;;;1.20;;
21661;SDS011;10992;48.170;8.596;2023-02-04T06:22:58;1.13;;;1.02;;
21661;SDS011;10992;48.170;8.596;2023-02-04T06:25:25;1.30;;;1.10;;
21661;SDS011;10992;48.170;8.596;2023-02-04T06:27:52;2.28;;;0.90;;
21661;SDS011;10992;48.170;8.596;2023-02-04T06:30:18;1.17;;;1.08;;
21661;SDS011;10992;48.170;8.596;2023-02-04T06:32:45;0.90;;;0.85;;
21661;SDS011;10992;48.170;8.596;2023-02-04T06:35:12;0.98;;;0.75;;
21661;SDS011;10992;48.170;8.596;2023-02-04T06:37:42;1.13;;;0.90;;
21661;SDS011;10992;48.170;8.596;2023-02-04T06:40:09;1.85;;;1.23;;
21661;SDS011;10992;48.170;8.596;2023-02-04T06:42:37;1.30;;;0.80;;
21661;SDS011;10992;48.170;8.596;2023-02-04T06:45:04;1.25;;;0.73;;
21661;SDS011;10992;48.170;8.596;2023-02-04T06:47:31;2.08;;;1.48;;
21661;SDS011;10992;48.170;8.596;2023-02-04T06:49:58;6.80;;;3.33;;
21661;SDS011;10992;48.170;8.596;2023-02-04T06:52:25;10.63;;;6.78;;
21661;SDS011;10992;48.170;8.596;2023-02-04T06:54:51;2.15;;;1.52;;
21661;SDS011;10992;48.170;8.596;2023-02-04T06:57:18;1.23;;;1.02;;
21661;SDS011;10992;48.170;8.596;2023-02-04T06:59:45;2.40;;;0.85;;
21661;SDS011;10992;48.170;8.596;2023-02-04T07:02:12;1.77;;;1.02;;
21661;SDS011;10992;48.170;8.596;2023-02-04T07:04:39;0.93;;;0.77;;
21661;SDS011;10992;48.170;8.596;2023-02-04T07:07:09;1.48;;;1.23;;
21661;SDS011;10992;48.170;8.596;2023-02-04T07:09:36;0.80;;;0.65;;
21661;SDS011;10992;48.170;8.596;2023-02-04T07:12:05;2.53;;;0.70;;
21661;SDS011;10992;48.170;8.596;2023-02-04T07:14:33;0.60;;;0.50;;
21661;SDS011;10992;48.170;8.596;2023-02-04T07:17:00;0.75;;;0.70;;
21661;SDS011;10992;48.170;8.596;2023-02-04T07:19:27;0.52;;;0.50;;
21661;SDS011;10992;48.170;8.596;2023-02-04T07:21:54;0.77;;;0.60;;
21661;SDS011;10992;48.170;8.596;2023-02-04T07:24:22;0.50;;;0.50;;
21661;SDS011;10992;48.170;8.596;2023-02-04T07:26:50;1.33;;;0.90;;
21661;SDS011;10992;48.170;8.596;2023-02-04T07:29:17;1.40;;;1.15;;
21661;SDS011;10992;48.170;8.596;2023-02-04T07:31:51;1.67;;;1.55;;
21661;SDS011;10992;48.170;8.596;2023-02-04T07:34:18;1.17;;;1.10;;
21661;SDS011;10992;48.170;8.596;2023-02-04T07:36:46;3.83;;;1.10;;
21661;SDS011;10992;48.170;8.596;2023-02-04T07:39:15;1.55;;;1.45;;
21661;SDS011;10992;48.170;8.596;2023-02-04T07:41:42;1.20;;;1.10;;
21661;SDS011;10992;48.170;8.596;2023-02-04T07:44:11;1.30;;;1.20;;
21661;SDS011;10992;48.170;8.596;2023-02-04T07:46:38;1.52;;;1.27;;
21661;SDS011;10992;48.170;8.596;2023-02-04T07:49:05;1.17;;;1.08;;
21661;SDS011;10992;48.170;8.596;2023-02-04T07:51:32;1.10;;;0.80;;
21661;SDS011;10992;48.170;8.596;2023-02-04T07:54:00;1.48;;;0.80;;
21661;SDS011;10992;48.170;8.596;2023-02-04T07:56:27;1.13;;;0.60;;
21661;SDS011;10992;48.170;8.596;2023-02-04T07:58:53;0.60;;;0.60;;
21661;SDS011;10992;48.170;8.596;2023-02-04T08:01:20;1.65;;;1.08;;
21661;SDS011;10992;48.170;8.596;2023-02-04T08:03:47;1.65;;;1.15;;
21661;SDS011;10992;48.170;8.596;2023-02-04T08:06:14;7.28;;;1.95;;
21661;SDS011;10992;48.170;8.596;2023-02-04T08:08:41;6.65;;;2.35;;
21661;SDS011;10992;48.170;8.596;2023-02-04T08:11:08;3.17;;;1.00;;
21661;SDS011;10992;48.170;8.596;2023-02-04T08:13:35;1.90;;;0.73;;
21661;SDS011;10992;48.170;8.596;2023-02-04T08:16:02;3.20;;;0.82;;
21661;SDS011;10992;48.170;8.596;2023-02-04T08:18:29;2.33;;;1.30;;
21661;SDS011;10992;48.170;8.596;2023-02-04T08:20:55;2.65;;;1.88;;
21661;SDS011;10992;48.170;8.596;2023-02-04T08:23:24;1.10;;;1.00;;
21661;SDS011;10992;48.170;8.596;2023-02-04T08:25:51;1.27;;;1.08;;
21661;SDS011;10992;48.170;8.596;2023-02-04T08:28:18;2.47;;;1.30;;
21661;SDS011;10992;48.170;8.596;2023-02-04T08:30:45;2.05;;;1.50;;
21661;SDS011;10992;48.170;8.596;2023-02-04T08:33:12;4.00;;;2.10;;
21661;SDS011;10992;48.170;8.596;2023-02-04T08:35:40;3.58;;;1.52;;
21661;SDS011;10992;48.170;8.596;2023-02-04T08:38:07;2.20;;;1.67;;
21661;SDS011;10992;48.170;8.596;2023-02-04T08:40:34;1.50;;;1.40;;
21661;SDS011;10992;48.170;8.596;2023-02-04T08:43:00;3.10;;;1.50;;
21661;SDS011;10992;48.170;8.596;2023-02-04T08:45:27;1.95;;;1.27;;
21661;SDS011;10992;48.170;8.596;2023-02-04T08:47:54;5.10;;;1.48;;
21661;SDS011;10992;48.170;8.596;2023-02-04T08:50:21;3.30;;;1.63;;
21661;SDS011;10992;48.170;8.596;2023-02-04T08:52:48;1.85;;;1.00;;
21661;SDS011;10992;48.170;8.596;2023-02-04T08:55:15;1.67;;;1.23;;
21661;SDS011;10992;48.170;8.596;2023-02-04T08:57:42;3.58;;;1.90;;
21661;SDS011;10992;48.170;8.596;2023-02-04T09:00:09;2.85;;;1.88;;
21661;SDS011;10992;48.170;8.596;2023-02-04T09:02:37;3.42;;;2.13;;
21661;SDS011;10992;48.170;8.596;2023-02-04T09:05:04;2.33;;;1.65;;
21661;SDS011;10992;48.170;8.596;2023-02-04T09:07:31;2.70;;;1.38;;
21661;SDS011;10992;48.170;8.596;2023-02-04T09:09:58;2.72;;;1.42;;
21661;SDS011;10992;48.170;8.596;2023-02-04T09:12:25;1.42;;;0.80;;
21661;SDS011;10992;48.170;8.596;2023-02-04T09:14:52;0.95;;;0.60;;
21661;SDS011;10992;48.170;8.596;2023-02-04T09:17:18;3.75;;;1.10;;
21661;SDS011;10992;48.170;8.596;2023-02-04T09:19:45;2.92;;;1.30;;
21661;SDS011;10992;48.170;8.596;2023-02-04T09:22:12;0.93;;;0.90;;
21661;SDS011;10992;48.170;8.596;2023-02-04T09:24:40;1.17;;;0.95;;
21661;SDS011;10992;48.170;8.596;2023-02-04T09:27:07;2.33;;;1.25;;
21661;SDS011;10992;48.170;8.596;2023-02-04T09:29:34;2.22;;;1.27;;
21661;SDS011;10992;48.170;8.596;2023-02-04T09:32:01;2.40;;;1.60;;
21661;SDS011;10992;48.170;8.596;2023-02-04T09:34:28;4.20;;;1.92;;
21661;SDS011;10992;48.170;8.596;2023-02-04T09:36:55;2.20;;;1.50;;
21661;SDS011;10992;48.170;8.596;2023-02-04T09:39:22;1.90;;;1.35;;
21661;SDS011;10992;48.170;8.596;2023-02-04T09:41:49;5.25;;;1.60;;
21661;SDS011;10992;48.170;8.596;2023-02-04T09:44:20;7.93;;;1.95;;
21661;SDS011;10992;48.170;8.596;2023-02-04T09:46:51;3.20;;;1.80;;
21661;SDS011;10992;48.170;8.596;2023-02-04T09:49:20;6.50;;;3.28;;
21661;SDS011;10992;48.170;8.596;2023-02-04T09:51:47;8.18;;;3.83;;
21661;SDS011;10992;48.170;8.596;2023-02-04T09:54:16;10.10;;;3.38;;
21661;SDS011;10992;48.170;8.596;2023-02-04T09:56:45;6.88;;;3.60;;
21661;SDS011;10992;48.170;8.596;2023-02-04T09:59:22;7.80;;;3.53;;
21661;SDS011;10992;48.170;8.596;2023-02-04T10:01:59;9.82;;;4.95;;
21661;SDS011;10992;48.170;8.596;2023-02-04T10:04:27;11.77;;;4.63;;
21661;SDS011;10992;48.170;8.596;2023-02-04T10:06:54;9.32;;;4.30;;
21661;SDS011;10992;48.170;8.596;2023-02-04T10:09:25;9.23;;;3.95;;
21661;SDS011;10992;48.170;8.596;2023-02-04T10:11:52;10.13;;;4.32;;
21661;SDS011;10992;48.170;8.596;2023-02-04T10:14:20;11.43;;;4.90;;
21661;SDS011;10992;48.170;8.596;2023-02-04T10:16:55;9.23;;;4.22;;
21661;SDS011;10992;48.170;8.596;2023-02-04T10:19:25;14.38;;;4.80;;
21661;SDS011;10992;48.170;8.596;2023-02-04T10:21:54;15.02;;;4.00;;
21661;SDS011;10992;48.170;8.596;2023-02-04T10:24:22;14.07;;;4.53;;
21661;SDS011;10992;48.170;8.596;2023-02-04T10:26:51;17.48;;;5.72;;
21661;SDS011;10992;48.170;8.596;2023-02-04T10:29:20;44.38;;;9.82;;
21661;SDS011;10992;48.170;8.596;2023-02-04T10:31:51;13.77;;;4.60;;
21661;SDS011;10992;48.170;8.596;2023-02-04T10:34:20;13.35;;;4.30;;
21661;SDS011;10992;48.170;8.596;2023-02-04T10:39:21;6.88;;;3.85;;
21661;SDS011;10992;48.170;8.596;2023-02-04T10:41:50;14.68;;;6.68;;
21661;SDS011;10992;48.170;8.596;2023-02-04T10:44:24;13.95;;;5.00;;
21661;SDS011;10992;48.170;8.596;2023-02-04T10:47:01;12.60;;;4.22;;
21661;SDS011;10992;48.170;8.596;2023-02-04T10:49:55;7.00;;;3.90;;
21661;SDS011;10992;48.170;8.596;2023-02-04T10:52:39;13.27;;;4.40;;
21661;SDS011;10992;48.170;8.596;2023-02-04T10:55:13;13.05;;;4.75;;
21661;SDS011;10992;48.170;8.596;2023-02-04T10:57:42;13.48;;;4.38;;
21661;SDS011;10992;48.170;8.596;2023-02-04T11:00:21;11.60;;;5.07;;
21661;SDS011;10992;48.170;8.596;2023-02-04T11:05:33;13.73;;;5.20;;
21661;SDS011;10992;48.170;8.596;2023-02-04T11:08:02;12.98;;;4.53;;
21661;SDS011;10992;48.170;8.596;2023-02-04T11:10:45;14.18;;;5.28;;
21661;SDS011;10992;48.170;8.596;2023-02-04T11:13:38;16.17;;;6.15;;
21661;SDS011;10992;48.170;8.596;2023-02-04T11:18:57;15.55;;;4.82;;
21661;SDS011;10992;48.170;8.596;2023-02-04T11:26:40;11.77;;;4.65;;
21661;SDS011;10992;48.170;8.596;2023-02-04T11:31:55;15.75;;;5.65;;
21661;SDS011;10992;48.170;8.596;2023-02-04T11:34:25;12.82;;;4.63;;
21661;SDS011;10992;48.170;8.596;2023-02-04T11:39:28;17.13;;;4.80;;
21661;SDS011;10992;48.170;8.596;2023-02-04T11:42:03;17.40;;;5.25;;
21661;SDS011;10992;48.170;8.596;2023-02-04T11:44:31;12.43;;;4.40;;
21661;SDS011;10992;48.170;8.596;2023-02-04T11:46:59;14.13;;;4.38;;
21661;SDS011;10992;48.170;8.596;2023-02-04T11:49:28;13.75;;;4.97;;
21661;SDS011;10992;48.170;8.596;2023-02-04T11:52:02;13.32;;;4.72;;
21661;SDS011;10992;48.170;8.596;2023-02-04T11:54:34;14.50;;;4.82;;
21661;SDS011;10992;48.170;8.596;2023-02-04T11:57:02;16.25;;;4.93;;
21661;SDS011;10992;48.170;8.596;2023-02-04T11:59:29;13.52;;;4.85;;
21661;SDS011;10992;48.170;8.596;2023-02-04T12:04:54;15.63;;;5.45;;
21661;SDS011;10992;48.170;8.596;2023-02-04T12:07:27;16.02;;;5.32;;
21661;SDS011;10992;48.170;8.596;2023-02-04T12:09:55;16.98;;;4.22;;
21661;SDS011;10992;48.170;8.596;2023-02-04T12:12:25;11.25;;;4.18;;
21661;SDS011;10992;48.170;8.596;2023-02-04T12:14:55;10.65;;;3.25;;
21661;SDS011;10992;48.170;8.596;2023-02-04T12:17:24;13.20;;;4.13;;
21661;SDS011;10992;48.170;8.596;2023-02-04T12:19:51;12.38;;;3.20;;
21661;SDS011;10992;48.170;8.596;2023-02-04T12:22:17;7.15;;;3.00;;
21661;SDS011;10992;48.170;8.596;2023-02-04T12:24:44;11.95;;;4.05;;
21661;SDS011;10992;48.170;8.596;2023-02-04T12:27:11;16.80;;;3.67;;
21661;SDS011;10992;48.170;8.596;2023-02-04T12:29:38;9.05;;;3.30;;
21661;SDS011;10992;48.170;8.596;2023-02-04T12:32:05;9.18;;;2.90;;
21661;SDS011;10992;48.170;8.596;2023-02-04T12:34:32;12.00;;;3.17;;
21661;SDS011;10992;48.170;8.596;2023-02-04T12:36:59;9.77;;;3.47;;
21661;SDS011;10992;48.170;8.596;2023-02-04T12:39:26;10.70;;;3.60;;
21661;SDS011;10992;48.170;8.596;2023-02-04T12:41:53;11.15;;;3.45;;
21661;SDS011;10992;48.170;8.596;2023-02-04T12:44:20;10.57;;;3.65;;
21661;SDS011;10992;48.170;8.596;2023-02-04T12:46:47;11.50;;;3.13;;
21661;SDS011;10992;48.170;8.596;2023-02-04T12:49:14;7.07;;;3.05;;
21661;SDS011;10992;48.170;8.596;2023-02-04T12:51:41;9.52;;;3.75;;
21661;SDS011;10992;48.170;8.596;2023-02-04T12:54:08;9.15;;;3.45;;
21661;SDS011;10992;48.170;8.596;2023-02-04T12:56:34;7.35;;;3.25;;
21661;SDS011;10992;48.170;8.596;2023-02-04T12:59:01;7.88;;;3.40;;
21661;SDS011;10992;48.170;8.596;2023-02-04T13:01:28;12.05;;;4.07;;
21661;SDS011;10992;48.170;8.596;2023-02-04T13:03:55;8.85;;;4.18;;
21661;SDS011;10992;48.170;8.596;2023-02-04T13:06:23;14.82;;;4.47;;
21661;SDS011;10992;48.170;8.596;2023-02-04T13:08:50;8.30;;;3.05;;
21661;SDS011;10992;48.170;8.596;2023-02-04T13:11:17;9.32;;;3.63;;
21661;SDS011;10992;48.170;8.596;2023-02-04T13:13:43;12.23;;;4.20;;
21661;SDS011;10992;48.170;8.596;2023-02-04T13:16:10;14.80;;;4.63;;
21661;SDS011;10992;48.170;8.596;2023-02-04T13:18:38;10.02;;;3.85;;
21661;SDS011;10992;48.170;8.596;2023-02-04T13:21:04;15.57;;;4.63;;
21661;SDS011;10992;48.170;8.596;2023-02-04T13:23:31;11.18;;;4.25;;
21661;SDS011;10992;48.170;8.596;2023-02-04T13:25:58;10.02;;;3.90;;
21661;SDS011;10992;48.170;8.596;2023-02-04T13:28:25;8.68;;;4.30;;
21661;SDS011;10992;48.170;8.596;2023-02-04T13:30:52;10.45;;;3.47;;
21661;SDS011;10992;48.170;8.596;2023-02-04T13:33:19;12.07;;;3.95;;
21661;SDS011;10992;48.170;8.596;2023-02-04T13:35:46;7.75;;;3.55;;
21661;SDS011;10992;48.170;8.596;2023-02-04T13:38:13;11.32;;;3.28;;
21661;SDS011;10992;48.170;8.596;2023-02-04T13:40:39;13.18;;;3.60;;
21661;SDS011;10992;48.170;8.596;2023-02-04T13:43:06;11.48;;;3.63;;
21661;SDS011;10992;48.170;8.596;2023-02-04T13:45:33;11.07;;;3.65;;
21661;SDS011;10992;48.170;8.596;2023-02-04T13:48:01;7.32;;;2.90;;
21661;SDS011;10992;48.170;8.596;2023-02-04T13:50:28;7.55;;;3.00;;
21661;SDS011;10992;48.170;8.596;2023-02-04T13:52:55;13.02;;;3.95;;
21661;SDS011;10992;48.170;8.596;2023-02-04T13:55:22;11.48;;;3.13;;
21661;SDS011;10992;48.170;8.596;2023-02-04T13:57:49;6.40;;;2.50;;
21661;SDS011;10992;48.170;8.596;2023-02-04T14:00:16;69.63;;;13.00;;
21661;SDS011;10992;48.170;8.596;2023-02-04T14:02:43;8.07;;;2.97;;
21661;SDS011;10992;48.170;8.596;2023-02-04T14:05:11;8.98;;;2.65;;
21661;SDS011;10992;48.170;8.596;2023-02-04T14:07:37;11.00;;;2.95;;
21661;SDS011;10992;48.170;8.596;2023-02-04T14:10:05;6.95;;;3.03;;
21661;SDS011;10992;48.170;8.596;2023-02-04T14:12:32;9.57;;;2.60;;
21661;SDS011;10992;48.170;8.596;2023-02-04T14:14:59;12.57;;;4.38;;
21661;SDS011;10992;48.170;8.596;2023-02-04T14:17:26;11.85;;;3.40;;
21661;SDS011;10992;48.170;8.596;2023-02-04T14:19:53;14.35;;;4.05;;
21661;SDS011;10992;48.170;8.596;2023-02-04T14:22:20;47.58;;;9.95;;
21661;SDS011;10992;48.170;8.596;2023-02-04T14:24:47;35.20;;;6.90;;
21661;SDS011;10992;48.170;8.596;2023-02-04T14:27:15;13.00;;;3.67;;
21661;SDS011;10992;48.170;8.596;2023-02-04T14:29:42;54.58;;;10.32;;
21661;SDS011;10992;48.170;8.596;2023-02-04T14:32:09;12.30;;;4.32;;
21661;SDS011;10992;48.170;8.596;2023-02-04T14:34:36;13.40;;;3.78;;
21661;SDS011;10992;48.170;8.596;2023-02-04T14:37:03;15.55;;;4.70;;
21661;SDS011;10992;48.170;8.596;2023-02-04T14:39:30;31.75;;;6.47;;
21661;SDS011;10992;48.170;8.596;2023-02-04T14:41:56;12.65;;;3.40;;
21661;SDS011;10992;48.170;8.596;2023-02-04T14:44:23;7.85;;;3.25;;
21661;SDS011;10992;48.170;8.596;2023-02-04T14:46:50;7.53;;;3.13;;
21661;SDS011;10992;48.170;8.596;2023-02-04T14:49:17;53.25;;;9.68;;
21661;SDS011;10992;48.170;8.596;2023-02-04T14:51:45;11.43;;;2.83;;
21661;SDS011;10992;48.170;8.596;2023-02-04T14:54:11;6.90;;;2.20;;
21661;SDS011;10992;48.170;8.596;2023-02-04T14:56:39;6.88;;;2.00;;
21661;SDS011;10992;48.170;8.596;2023-02-04T14:59:06;7.68;;;2.17;;
21661;SDS011;10992;48.170;8.596;2023-02-04T15:01:33;5.22;;;2.30;;
21661;SDS011;10992;48.170;8.596;2023-02-04T15:04:00;6.15;;;2.60;;
21661;SDS011;10992;48.170;8.596;2023-02-04T15:06:27;11.90;;;3.05;;
21661;SDS011;10992;48.170;8.596;2023-02-04T15:08:54;8.65;;;3.10;;
21661;SDS011;10992;48.170;8.596;2023-02-04T15:11:22;11.70;;;3.00;;
21661;SDS011;10992;48.170;8.596;2023-02-04T15:13:49;13.27;;;3.03;;